sensor_id;sensor_type;location;lat;lon;timestamp;pressure;altitude;pressure_sealevel;temperature
64904;BMP280;51401;48.882;12.598;2023-07-31T00:02:17;81431.06;;;15.54
64904;BMP280;51401;48.882;12.598;2023-07-31T00:04:42;81263.56;;;15.53
64904;BMP280;51401;48.882;12.598;2023-07-31T00:07:08;81049.69;;;15.54
64904;BMP280;51401;48.882;12.598;2023-07-31T00:09:33;80983.16;;;15.51
64904;BMP280;51401;48.882;12.598;2023-07-31T00:11:59;80836.47;;;15.50
64904;BMP280;51401;48.882;12.598;2023-07-31T00:14:24;80773.34;;;15.45
64904;BMP280;51401;48.882;12.598;2023-07-31T00:16:49;80635.25;;;15.49
64904;BMP280;51401;48.882;12.598;2023-07-31T00:19:15;80654.06;;;15.43
64904;BMP280;51401;48.882;12.598;2023-07-31T00:21:40;80549.59;;;15.42
64904;BMP280;51401;48.882;12.598;2023-07-31T00:24:06;80550.91;;;15.30
64904;BMP280;51401;48.882;12.598;2023-07-31T00:26:31;80424.00;;;15.33
64904;BMP280;51401;48.882;12.598;2023-07-31T00:28:56;80391.00;;;15.21
64904;BMP280;51401;48.882;12.598;2023-07-31T00:31:22;80269.56;;;15.21
64904;BMP280;51401;48.882;12.598;2023-07-31T00:33:47;80132.34;;;15.24
64904;BMP280;51401;48.882;12.598;2023-07-31T00:36:12;80029.09;;;15.24
64904;BMP280;51401;48.882;12.598;2023-07-31T00:38:38;79918.38;;;15.27
64904;BMP280;51401;48.882;12.598;2023-07-31T00:41:03;79758.88;;;15.26
64904;BMP280;51401;48.882;12.598;2023-07-31T00:43:28;79747.16;;;15.31
64904;BMP280;51401;48.882;12.598;2023-07-31T00:45:54;79672.31;;;15.38
64904;BMP280;51401;48.882;12.598;2023-07-31T00:48:19;79659.69;;;15.41
64904;BMP280;51401;48.882;12.598;2023-07-31T00:50:45;79627.00;;;15.37
64904;BMP280;51401;48.882;12.598;2023-07-31T00:53:10;79826.47;;;15.30
64904;BMP280;51401;48.882;12.598;2023-07-31T00:55:36;79981.50;;;15.26
64904;BMP280;51401;48.882;12.598;2023-07-31T00:58:01;80123.25;;;15.18
64904;BMP280;51401;48.882;12.598;2023-07-31T01:00:26;80193.78;;;15.14
64904;BMP280;51401;48.882;12.598;2023-07-31T01:02:52;80205.88;;;15.05
64904;BMP280;51401;48.882;12.598;2023-07-31T01:05:25;80272.47;;;14.96
64904;BMP280;51401;48.882;12.598;2023-07-31T01:10:34;80152.31;;;14.80
64904;BMP280;51401;48.882;12.598;2023-07-31T01:13:00;80043.84;;;14.76
64904;BMP280;51401;48.882;12.598;2023-07-31T01:15:26;79862.00;;;14.78
64904;BMP280;51401;48.882;12.598;2023-07-31T01:17:51;79699.16;;;14.78
64904;BMP280;51401;48.882;12.598;2023-07-31T01:20:19;79575.50;;;14.77
64904;BMP280;51401;48.882;12.598;2023-07-31T01:28:02;79476.69;;;14.79
64904;BMP280;51401;48.882;12.598;2023-07-31T01:30:32;79455.94;;;14.79
64904;BMP280;51401;48.882;12.598;2023-07-31T01:33:02;79391.34;;;14.77
64904;BMP280;51401;48.882;12.598;2023-07-31T01:35:38;79250.81;;;14.81
64904;BMP280;51401;48.882;12.598;2023-07-31T01:38:04;79161.13;;;14.77
64904;BMP280;51401;48.882;12.598;2023-07-31T01:40:30;79122.69;;;14.89
64904;BMP280;51401;48.882;12.598;2023-07-31T01:42:55;79136.31;;;14.94
64904;BMP280;51401;48.882;12.598;2023-07-31T01:45:21;79206.72;;;15.00
64904;BMP280;51401;48.882;12.598;2023-07-31T01:47:46;79307.91;;;15.00
64904;BMP280;51401;48.882;12.598;2023-07-31T01:50:12;79321.41;;;14.97
64904;BMP280;51401;48.882;12.598;2023-07-31T01:52:37;79261.97;;;14.95
64904;BMP280;51401;48.882;12.598;2023-07-31T01:55:02;79353.22;;;14.86
64904;BMP280;51401;48.882;12.598;2023-07-31T01:57:28;79329.81;;;14.82
64904;BMP280;51401;48.882;12.598;2023-07-31T01:59:53;79221.75;;;14.85
64904;BMP280;51401;48.882;12.598;2023-07-31T02:02:19;79134.50;;;14.88
64904;BMP280;51401;48.882;12.598;2023-07-31T02:04:45;79103.38;;;14.88
64904;BMP280;51401;48.882;12.598;2023-07-31T02:07:10;79137.16;;;14.92
64904;BMP280;51401;48.882;12.598;2023-07-31T02:09:35;79130.22;;;14.91
64904;BMP280;51401;48.882;12.598;2023-07-31T02:12:01;79139.47;;;14.94
64904;BMP280;51401;48.882;12.598;2023-07-31T02:14:26;79177.22;;;14.93
64904;BMP280;51401;48.882;12.598;2023-07-31T02:16:51;79134.34;;;14.99
64904;BMP280;51401;48.882;12.598;2023-07-31T02:19:16;79109.63;;;15.04
64904;BMP280;51401;48.882;12.598;2023-07-31T02:21:42;79129.31;;;15.07
64904;BMP280;51401;48.882;12.598;2023-07-31T02:24:07;79141.72;;;15.07
64904;BMP280;51401;48.882;12.598;2023-07-31T02:26:32;79193.38;;;14.94
64904;BMP280;51401;48.882;12.598;2023-07-31T02:28:58;78978.97;;;14.97
64904;BMP280;51401;48.882;12.598;2023-07-31T02:31:23;78991.63;;;14.94
64904;BMP280;51401;48.882;12.598;2023-07-31T02:33:48;78991.66;;;14.99
64904;BMP280;51401;48.882;12.598;2023-07-31T02:36:13;79138.31;;;14.93
64904;BMP280;51401;48.882;12.598;2023-07-31T02:38:39;79120.09;;;14.89
64904;BMP280;51401;48.882;12.598;2023-07-31T02:41:05;79110.19;;;14.80
64904;BMP280;51401;48.882;12.598;2023-07-31T02:43:30;79132.63;;;14.77
64904;BMP280;51401;48.882;12.598;2023-07-31T02:45:55;79156.13;;;14.71
64904;BMP280;51401;48.882;12.598;2023-07-31T02:48:20;79266.56;;;14.59
64904;BMP280;51401;48.882;12.598;2023-07-31T02:50:47;79320.00;;;14.52
64904;BMP280;51401;48.882;12.598;2023-07-31T02:53:12;79214.13;;;14.43
64904;BMP280;51401;48.882;12.598;2023-07-31T02:55:38;79033.56;;;14.42
64904;BMP280;51401;48.882;12.598;2023-07-31T02:58:03;78988.41;;;14.26
64904;BMP280;51401;48.882;12.598;2023-07-31T03:00:29;78700.59;;;14.32
64904;BMP280;51401;48.882;12.598;2023-07-31T03:02:54;78434.41;;;14.50
64904;BMP280;51401;48.882;12.598;2023-07-31T03:05:19;78357.53;;;14.53
64904;BMP280;51401;48.882;12.598;2023-07-31T03:07:44;78417.41;;;14.43
64904;BMP280;51401;48.882;12.598;2023-07-31T03:10:10;78444.97;;;14.35
64904;BMP280;51401;48.882;12.598;2023-07-31T03:12:35;78326.94;;;14.32
64904;BMP280;51401;48.882;12.598;2023-07-31T03:15:01;78198.88;;;14.31
64904;BMP280;51401;48.882;12.598;2023-07-31T03:17:27;78078.56;;;14.25
64904;BMP280;51401;48.882;12.598;2023-07-31T03:19:52;78072.22;;;14.20
64904;BMP280;51401;48.882;12.598;2023-07-31T03:22:17;77851.22;;;14.21
64904;BMP280;51401;48.882;12.598;2023-07-31T03:24:43;77595.41;;;14.22
64904;BMP280;51401;48.882;12.598;2023-07-31T03:27:08;77416.72;;;14.22
64904;BMP280;51401;48.882;12.598;2023-07-31T03:29:33;77390.91;;;14.17
64904;BMP280;51401;48.882;12.598;2023-07-31T03:31:58;77349.78;;;14.15
64904;BMP280;51401;48.882;12.598;2023-07-31T03:34:24;77166.81;;;14.18
64904;BMP280;51401;48.882;12.598;2023-07-31T03:36:49;77059.50;;;14.17
64904;BMP280;51401;48.882;12.598;2023-07-31T03:39:14;77001.19;;;14.14
64904;BMP280;51401;48.882;12.598;2023-07-31T03:41:40;77040.31;;;14.12
64904;BMP280;51401;48.882;12.598;2023-07-31T03:44:05;77093.00;;;14.11
64904;BMP280;51401;48.882;12.598;2023-07-31T03:46:30;77004.09;;;14.12
64904;BMP280;51401;48.882;12.598;2023-07-31T03:48:56;76884.13;;;14.14
64904;BMP280;51401;48.882;12.598;2023-07-31T03:51:21;76786.97;;;14.10
64904;BMP280;51401;48.882;12.598;2023-07-31T03:53:46;76696.16;;;14.08
64904;BMP280;51401;48.882;12.598;2023-07-31T03:56:12;76684.44;;;14.04
64904;BMP280;51401;48.882;12.598;2023-07-31T03:58:37;76662.06;;;14.03
64904;BMP280;51401;48.882;12.598;2023-07-31T04:01:03;76646.75;;;14.05
64904;BMP280;51401;48.882;12.598;2023-07-31T04:03:29;76668.59;;;14.06
64904;BMP280;51401;48.882;12.598;2023-07-31T04:05:56;76796.06;;;14.02
64904;BMP280;51401;48.882;12.598;2023-07-31T04:08:22;76850.72;;;14.00
64904;BMP280;51401;48.882;12.598;2023-07-31T04:10:47;76851.88;;;14.01
64904;BMP280;51401;48.882;12.598;2023-07-31T04:13:13;76881.22;;;14.00
64904;BMP280;51401;48.882;12.598;2023-07-31T04:15:38;76922.63;;;14.00
64904;BMP280;51401;48.882;12.598;2023-07-31T04:18:04;76940.53;;;13.97
64904;BMP280;51401;48.882;12.598;2023-07-31T04:20:29;76912.94;;;13.96
64904;BMP280;51401;48.882;12.598;2023-07-31T04:22:55;76895.13;;;13.94
64904;BMP280;51401;48.882;12.598;2023-07-31T04:25:20;76839.28;;;13.84
64904;BMP280;51401;48.882;12.598;2023-07-31T04:27:45;76857.94;;;13.84
64904;BMP280;51401;48.882;12.598;2023-07-31T04:30:11;77024.72;;;13.81
64904;BMP280;51401;48.882;12.598;2023-07-31T04:32:36;77074.94;;;13.86
64904;BMP280;51401;48.882;12.598;2023-07-31T04:35:02;77159.97;;;13.92
64904;BMP280;51401;48.882;12.598;2023-07-31T04:37:27;77285.44;;;13.85
64904;BMP280;51401;48.882;12.598;2023-07-31T04:39:53;77355.84;;;13.89
64904;BMP280;51401;48.882;12.598;2023-07-31T04:42:18;77491.19;;;14.01
64904;BMP280;51401;48.882;12.598;2023-07-31T04:44:43;77703.16;;;13.99
64904;BMP280;51401;48.882;12.598;2023-07-31T04:47:09;77628.59;;;14.13
64904;BMP280;51401;48.882;12.598;2023-07-31T04:49:34;77448.34;;;14.51
64904;BMP280;51401;48.882;12.598;2023-07-31T04:51:59;77603.03;;;15.02
64904;BMP280;51401;48.882;12.598;2023-07-31T04:54:24;78186.31;;;15.82
64904;BMP280;51401;48.882;12.598;2023-07-31T04:56:50;79788.94;;;16.34
64904;BMP280;51401;48.882;12.598;2023-07-31T04:59:15;81417.81;;;16.62
64904;BMP280;51401;48.882;12.598;2023-07-31T05:01:40;82639.34;;;16.81
64904;BMP280;51401;48.882;12.598;2023-07-31T05:04:05;83628.56;;;17.24
64904;BMP280;51401;48.882;12.598;2023-07-31T05:06:32;84591.03;;;17.73
64904;BMP280;51401;48.882;12.598;2023-07-31T05:08:57;85422.31;;;17.98
64904;BMP280;51401;48.882;12.598;2023-07-31T05:11:23;85777.94;;;18.26
64904;BMP280;51401;48.882;12.598;2023-07-31T05:13:48;86325.25;;;18.41
64904;BMP280;51401;48.882;12.598;2023-07-31T05:16:14;86396.41;;;18.45
64904;BMP280;51401;48.882;12.598;2023-07-31T05:18:39;86736.25;;;18.55
64904;BMP280;51401;48.882;12.598;2023-07-31T05:21:04;86692.09;;;18.69
64904;BMP280;51401;48.882;12.598;2023-07-31T05:23:30;86683.09;;;18.91
64904;BMP280;51401;48.882;12.598;2023-07-31T05:26:03;86591.59;;;18.31
64904;BMP280;51401;48.882;12.598;2023-07-31T05:28:29;86493.44;;;18.36
64904;BMP280;51401;48.882;12.598;2023-07-31T05:30:59;86319.09;;;19.17
64904;BMP280;51401;48.882;12.598;2023-07-31T05:33:25;86726.97;;;19.68
64904;BMP280;51401;48.882;12.598;2023-07-31T05:35:50;87373.22;;;19.19
64904;BMP280;51401;48.882;12.598;2023-07-31T05:38:15;86971.22;;;19.76
64904;BMP280;51401;48.882;12.598;2023-07-31T05:40:42;87272.28;;;19.64
64904;BMP280;51401;48.882;12.598;2023-07-31T05:43:08;87195.25;;;20.17
64904;BMP280;51401;48.882;12.598;2023-07-31T05:45:33;87456.63;;;20.36
64904;BMP280;51401;48.882;12.598;2023-07-31T05:47:58;87847.22;;;20.20
64904;BMP280;51401;48.882;12.598;2023-07-31T05:50:24;87839.63;;;19.95
64904;BMP280;51401;48.882;12.598;2023-07-31T05:52:49;87564.19;;;19.95
64904;BMP280;51401;48.882;12.598;2023-07-31T05:55:14;87693.94;;;20.01
64904;BMP280;51401;48.882;12.598;2023-07-31T05:57:41;87558.25;;;19.96
64904;BMP280;51401;48.882;12.598;2023-07-31T06:00:07;87683.59;;;19.90
64904;BMP280;51401;48.882;12.598;2023-07-31T06:02:33;87804.69;;;20.12
64904;BMP280;51401;48.882;12.598;2023-07-31T06:05:01;88069.06;;;20.03
64904;BMP280;51401;48.882;12.598;2023-07-31T06:07:27;87841.44;;;20.69
64904;BMP280;51401;48.882;12.598;2023-07-31T06:09:52;88479.72;;;20.51
64904;BMP280;51401;48.882;12.598;2023-07-31T06:12:19;88691.16;;;20.43
64904;BMP280;51401;48.882;12.598;2023-07-31T06:14:45;88633.41;;;20.64
64904;BMP280;51401;48.882;12.598;2023-07-31T06:17:10;88349.75;;;20.56
64904;BMP280;51401;48.882;12.598;2023-07-31T06:19:35;88748.25;;;20.48
64904;BMP280;51401;48.882;12.598;2023-07-31T06:22:01;88415.44;;;19.76
64904;BMP280;51401;48.882;12.598;2023-07-31T06:24:26;88316.94;;;20.44
64904;BMP280;51401;48.882;12.598;2023-07-31T06:26:51;88210.69;;;20.35
64904;BMP280;51401;48.882;12.598;2023-07-31T06:29:17;87981.97;;;20.70
64904;BMP280;51401;48.882;12.598;2023-07-31T06:31:42;88281.34;;;20.80
64904;BMP280;51401;48.882;12.598;2023-07-31T06:34:07;88450.75;;;21.01
64904;BMP280;51401;48.882;12.598;2023-07-31T06:36:32;88595.28;;;21.16
64904;BMP280;51401;48.882;12.598;2023-07-31T06:38:58;88405.34;;;21.16
64904;BMP280;51401;48.882;12.598;2023-07-31T06:41:23;88623.47;;;21.49
64904;BMP280;51401;48.882;12.598;2023-07-31T06:43:48;88818.78;;;21.63
64904;BMP280;51401;48.882;12.598;2023-07-31T06:46:14;88739.84;;;21.59
64904;BMP280;51401;48.882;12.598;2023-07-31T06:48:39;89391.75;;;21.55
64904;BMP280;51401;48.882;12.598;2023-07-31T06:51:04;89360.84;;;21.57
64904;BMP280;51401;48.882;12.598;2023-07-31T06:53:30;89407.47;;;21.47
64904;BMP280;51401;48.882;12.598;2023-07-31T06:55:55;89590.16;;;21.89
64904;BMP280;51401;48.882;12.598;2023-07-31T06:58:20;93821.59;;;22.00
64904;BMP280;51401;48.882;12.598;2023-07-31T07:00:46;94003.75;;;21.94
64904;BMP280;51401;48.882;12.598;2023-07-31T07:03:11;94132.56;;;21.66
64904;BMP280;51401;48.882;12.598;2023-07-31T07:05:36;94134.13;;;22.15
64904;BMP280;51401;48.882;12.598;2023-07-31T07:08:02;94238.22;;;22.14
64904;BMP280;51401;48.882;12.598;2023-07-31T07:10:27;94319.84;;;22.27
64904;BMP280;51401;48.882;12.598;2023-07-31T07:12:52;94274.56;;;21.84
64904;BMP280;51401;48.882;12.598;2023-07-31T07:15:18;94169.03;;;21.99
64904;BMP280;51401;48.882;12.598;2023-07-31T07:17:43;94216.47;;;22.07
64904;BMP280;51401;48.882;12.598;2023-07-31T07:20:08;94347.00;;;21.61
64904;BMP280;51401;48.882;12.598;2023-07-31T07:22:34;94359.13;;;21.79
64904;BMP280;51401;48.882;12.598;2023-07-31T07:24:59;94383.72;;;22.04
64904;BMP280;51401;48.882;12.598;2023-07-31T07:27:24;94479.41;;;22.04
64904;BMP280;51401;48.882;12.598;2023-07-31T07:29:50;94389.66;;;22.26
64904;BMP280;51401;48.882;12.598;2023-07-31T07:32:17;94679.22;;;22.61
64904;BMP280;51401;48.882;12.598;2023-07-31T07:34:43;94957.50;;;22.50
64904;BMP280;51401;48.882;12.598;2023-07-31T07:37:08;95031.53;;;22.85
64904;BMP280;51401;48.882;12.598;2023-07-31T07:39:34;95286.69;;;22.22
64904;BMP280;51401;48.882;12.598;2023-07-31T07:41:59;95408.56;;;22.90
64904;BMP280;51401;48.882;12.598;2023-07-31T07:44:24;95529.91;;;22.32
64904;BMP280;51401;48.882;12.598;2023-07-31T07:46:50;95474.25;;;21.99
64904;BMP280;51401;48.882;12.598;2023-07-31T07:49:15;95494.41;;;22.71
64904;BMP280;51401;48.882;12.598;2023-07-31T07:51:40;95591.94;;;23.00
64904;BMP280;51401;48.882;12.598;2023-07-31T07:54:06;95724.28;;;22.89
64904;BMP280;51401;48.882;12.598;2023-07-31T07:56:32;95727.00;;;23.27
64904;BMP280;51401;48.882;12.598;2023-07-31T07:58:58;95774.22;;;23.36
64904;BMP280;51401;48.882;12.598;2023-07-31T08:01:23;95828.00;;;23.08
64904;BMP280;51401;48.882;12.598;2023-07-31T08:03:49;95828.06;;;22.71
64904;BMP280;51401;48.882;12.598;2023-07-31T08:06:15;95874.22;;;22.23
64904;BMP280;51401;48.882;12.598;2023-07-31T08:08:40;95866.72;;;21.75
64904;BMP280;51401;48.882;12.598;2023-07-31T08:11:05;95788.38;;;21.70
64904;BMP280;51401;48.882;12.598;2023-07-31T08:13:31;95819.84;;;21.62
64904;BMP280;51401;48.882;12.598;2023-07-31T08:15:56;95893.25;;;21.58
64904;BMP280;51401;48.882;12.598;2023-07-31T08:18:22;95862.31;;;21.59
64904;BMP280;51401;48.882;12.598;2023-07-31T08:20:47;95909.53;;;21.62
64904;BMP280;51401;48.882;12.598;2023-07-31T08:23:13;95987.47;;;21.98
64904;BMP280;51401;48.882;12.598;2023-07-31T08:25:38;96102.31;;;22.44
64904;BMP280;51401;48.882;12.598;2023-07-31T08:28:05;96104.94;;;22.49
64904;BMP280;51401;48.882;12.598;2023-07-31T08:30:30;96163.06;;;22.49
64904;BMP280;51401;48.882;12.598;2023-07-31T08:32:56;96217.09;;;21.98
64904;BMP280;51401;48.882;12.598;2023-07-31T08:35:22;96148.94;;;22.47
64904;BMP280;51401;48.882;12.598;2023-07-31T08:37:48;96161.66;;;23.06
64904;BMP280;51401;48.882;12.598;2023-07-31T08:40:13;96160.50;;;22.33
64904;BMP280;51401;48.882;12.598;2023-07-31T08:42:46;96117.50;;;21.98
64904;BMP280;51401;48.882;12.598;2023-07-31T08:45:18;95927.09;;;22.12
64904;BMP280;51401;48.882;12.598;2023-07-31T08:47:46;95867.66;;;22.06
64904;BMP280;51401;48.882;12.598;2023-07-31T08:50:15;95811.53;;;22.06
64904;BMP280;51401;48.882;12.598;2023-07-31T08:52:41;95786.44;;;21.94
64904;BMP280;51401;48.882;12.598;2023-07-31T08:55:08;95738.94;;;21.70
64904;BMP280;51401;48.882;12.598;2023-07-31T08:57:37;95659.19;;;21.83
64904;BMP280;51401;48.882;12.598;2023-07-31T09:00:04;95709.03;;;21.86
64904;BMP280;51401;48.882;12.598;2023-07-31T09:02:37;95599.97;;;22.14
64904;BMP280;51401;48.882;12.598;2023-07-31T09:05:05;95497.53;;;21.82
64904;BMP280;51401;48.882;12.598;2023-07-31T09:07:31;95604.59;;;21.96
64904;BMP280;51401;48.882;12.598;2023-07-31T09:09:58;95506.03;;;21.75
64904;BMP280;51401;48.882;12.598;2023-07-31T09:12:25;95399.19;;;22.00
64904;BMP280;51401;48.882;12.598;2023-07-31T09:14:50;95488.38;;;22.01
64904;BMP280;51401;48.882;12.598;2023-07-31T09:17:31;95601.25;;;22.26
64904;BMP280;51401;48.882;12.598;2023-07-31T09:19:57;95632.63;;;22.48
64904;BMP280;51401;48.882;12.598;2023-07-31T09:22:33;95652.97;;;23.14
64904;BMP280;51401;48.882;12.598;2023-07-31T09:25:16;95860.19;;;23.42
64904;BMP280;51401;48.882;12.598;2023-07-31T09:27:51;96137.03;;;24.36
64904;BMP280;51401;48.882;12.598;2023-07-31T09:30:17;96373.34;;;24.76
64904;BMP280;51401;48.882;12.598;2023-07-31T09:32:44;96387.25;;;25.00
64904;BMP280;51401;48.882;12.598;2023-07-31T09:35:22;96547.59;;;25.77
64904;BMP280;51401;48.882;12.598;2023-07-31T09:37:52;96694.81;;;25.16
64904;BMP280;51401;48.882;12.598;2023-07-31T09:42:55;96795.09;;;26.41
64904;BMP280;51401;48.882;12.598;2023-07-31T09:45:21;96864.75;;;25.64
64904;BMP280;51401;48.882;12.598;2023-07-31T09:47:48;96786.03;;;26.49
64904;BMP280;51401;48.882;12.598;2023-07-31T09:50:16;96867.53;;;26.65
64904;BMP280;51401;48.882;12.598;2023-07-31T09:52:42;96872.25;;;27.08
64904;BMP280;51401;48.882;12.598;2023-07-31T09:55:08;96959.00;;;25.86
64904;BMP280;51401;48.882;12.598;2023-07-31T09:57:34;96711.50;;;25.12
64904;BMP280;51401;48.882;12.598;2023-07-31T10:00:02;96723.38;;;24.76
64904;BMP280;51401;48.882;12.598;2023-07-31T10:02:28;96758.03;;;24.49
64904;BMP280;51401;48.882;12.598;2023-07-31T10:04:57;96481.19;;;23.87
64904;BMP280;51401;48.882;12.598;2023-07-31T10:07:25;96245.03;;;23.88
64904;BMP280;51401;48.882;12.598;2023-07-31T10:09:52;96248.50;;;24.02
64904;BMP280;51401;48.882;12.598;2023-07-31T10:12:19;96567.44;;;25.16
64904;BMP280;51401;48.882;12.598;2023-07-31T10:14:47;96578.81;;;25.71
64904;BMP280;51401;48.882;12.598;2023-07-31T10:17:13;96660.91;;;26.42
64904;BMP280;51401;48.882;12.598;2023-07-31T10:19:39;96826.19;;;25.57
64904;BMP280;51401;48.882;12.598;2023-07-31T10:22:05;96832.41;;;27.03
64904;BMP280;51401;48.882;12.598;2023-07-31T10:24:31;97069.41;;;27.15
64904;BMP280;51401;48.882;12.598;2023-07-31T10:26:58;97070.66;;;26.91
64904;BMP280;51401;48.882;12.598;2023-07-31T10:29:26;97126.44;;;26.78
64904;BMP280;51401;48.882;12.598;2023-07-31T10:31:52;97063.28;;;26.79
64904;BMP280;51401;48.882;12.598;2023-07-31T10:34:18;97001.19;;;26.00
64904;BMP280;51401;48.882;12.598;2023-07-31T10:36:43;97006.50;;;26.00
64904;BMP280;51401;48.882;12.598;2023-07-31T10:39:35;97084.50;;;27.26
64904;BMP280;51401;48.882;12.598;2023-07-31T10:42:13;97050.72;;;26.27
64904;BMP280;51401;48.882;12.598;2023-07-31T10:44:44;97047.56;;;26.28
64904;BMP280;51401;48.882;12.598;2023-07-31T10:47:10;97079.25;;;25.92
64904;BMP280;51401;48.882;12.598;2023-07-31T10:49:35;96876.84;;;25.65
64904;BMP280;51401;48.882;12.598;2023-07-31T10:52:03;96892.31;;;25.61
64904;BMP280;51401;48.882;12.598;2023-07-31T10:54:29;96875.41;;;26.11
64904;BMP280;51401;48.882;12.598;2023-07-31T10:56:56;96939.84;;;25.69
64904;BMP280;51401;48.882;12.598;2023-07-31T10:59:26;96881.41;;;25.35
64904;BMP280;51401;48.882;12.598;2023-07-31T11:01:54;96865.63;;;25.77
64904;BMP280;51401;48.882;12.598;2023-07-31T11:04:26;97063.78;;;27.73
64904;BMP280;51401;48.882;12.598;2023-07-31T11:06:59;97105.78;;;27.86
64904;BMP280;51401;48.882;12.598;2023-07-31T11:09:28;97075.72;;;27.13
64904;BMP280;51401;48.882;12.598;2023-07-31T11:11:55;97109.13;;;26.90
64904;BMP280;51401;48.882;12.598;2023-07-31T11:14:20;96948.81;;;25.61
64904;BMP280;51401;48.882;12.598;2023-07-31T11:16:49;96900.81;;;25.25
64904;BMP280;51401;48.882;12.598;2023-07-31T11:19:15;96924.50;;;25.52
64904;BMP280;51401;48.882;12.598;2023-07-31T11:21:40;96820.88;;;25.34
64904;BMP280;51401;48.882;12.598;2023-07-31T11:24:05;97077.41;;;26.16
64904;BMP280;51401;48.882;12.598;2023-07-31T11:26:30;97169.72;;;26.50
64904;BMP280;51401;48.882;12.598;2023-07-31T11:28:56;97216.06;;;27.17
64904;BMP280;51401;48.882;12.598;2023-07-31T11:31:21;97168.06;;;27.64
64904;BMP280;51401;48.882;12.598;2023-07-31T11:33:47;97203.19;;;26.35
64904;BMP280;51401;48.882;12.598;2023-07-31T11:36:20;97173.22;;;26.34
64904;BMP280;51401;48.882;12.598;2023-07-31T11:38:49;97172.53;;;26.91
64904;BMP280;51401;48.882;12.598;2023-07-31T11:41:15;97192.06;;;27.64
64904;BMP280;51401;48.882;12.598;2023-07-31T11:43:45;97239.88;;;27.05
64904;BMP280;51401;48.882;12.598;2023-07-31T11:46:11;97218.50;;;26.92
64904;BMP280;51401;48.882;12.598;2023-07-31T11:48:37;97175.19;;;25.83
64904;BMP280;51401;48.882;12.598;2023-07-31T11:51:04;97225.44;;;25.87
64904;BMP280;51401;48.882;12.598;2023-07-31T11:53:36;97233.13;;;26.40
64904;BMP280;51401;48.882;12.598;2023-07-31T11:56:04;97218.72;;;27.17
64904;BMP280;51401;48.882;12.598;2023-07-31T11:58:31;97245.41;;;26.83
64904;BMP280;51401;48.882;12.598;2023-07-31T12:00:58;97265.72;;;26.86
64904;BMP280;51401;48.882;12.598;2023-07-31T12:03:24;97233.56;;;27.13
64904;BMP280;51401;48.882;12.598;2023-07-31T12:05:49;97237.47;;;28.13
64904;BMP280;51401;48.882;12.598;2023-07-31T12:08:15;97241.19;;;27.69
64904;BMP280;51401;48.882;12.598;2023-07-31T12:10:41;97200.59;;;27.16
64904;BMP280;51401;48.882;12.598;2023-07-31T12:13:09;97199.50;;;26.77
64904;BMP280;51401;48.882;12.598;2023-07-31T12:15:43;97156.69;;;26.12
64904;BMP280;51401;48.882;12.598;2023-07-31T12:18:11;97114.16;;;26.12
64904;BMP280;51401;48.882;12.598;2023-07-31T12:20:43;97154.56;;;26.97
64904;BMP280;51401;48.882;12.598;2023-07-31T12:23:17;97191.53;;;27.24
64904;BMP280;51401;48.882;12.598;2023-07-31T12:25:43;97089.81;;;25.63
64904;BMP280;51401;48.882;12.598;2023-07-31T12:28:09;97111.44;;;25.83
64904;BMP280;51401;48.882;12.598;2023-07-31T12:30:39;97102.94;;;26.24
64904;BMP280;51401;48.882;12.598;2023-07-31T12:33:13;97075.16;;;26.25
64904;BMP280;51401;48.882;12.598;2023-07-31T12:35:44;97106.31;;;25.45
64904;BMP280;51401;48.882;12.598;2023-07-31T12:38:10;97052.59;;;25.23
64904;BMP280;51401;48.882;12.598;2023-07-31T12:40:37;97063.16;;;25.29
64904;BMP280;51401;48.882;12.598;2023-07-31T12:43:03;97034.59;;;24.90
64904;BMP280;51401;48.882;12.598;2023-07-31T12:45:29;97070.00;;;26.04
64904;BMP280;51401;48.882;12.598;2023-07-31T12:47:56;97114.03;;;26.86
64904;BMP280;51401;48.882;12.598;2023-07-31T12:50:21;97191.44;;;27.12
64904;BMP280;51401;48.882;12.598;2023-07-31T12:52:46;97185.53;;;27.84
64904;BMP280;51401;48.882;12.598;2023-07-31T12:55:12;97132.59;;;26.68
64904;BMP280;51401;48.882;12.598;2023-07-31T12:57:37;97124.22;;;26.82
64904;BMP280;51401;48.882;12.598;2023-07-31T13:00:03;97107.97;;;27.09
64904;BMP280;51401;48.882;12.598;2023-07-31T13:02:28;97201.38;;;27.94
64904;BMP280;51401;48.882;12.598;2023-07-31T13:04:54;97182.81;;;28.51
64904;BMP280;51401;48.882;12.598;2023-07-31T13:07:22;97206.38;;;28.16
64904;BMP280;51401;48.882;12.598;2023-07-31T13:09:47;97179.31;;;27.58
64904;BMP280;51401;48.882;12.598;2023-07-31T13:12:12;97184.66;;;27.76
64904;BMP280;51401;48.882;12.598;2023-07-31T13:14:38;97212.91;;;28.20
64904;BMP280;51401;48.882;12.598;2023-07-31T13:17:03;97193.56;;;27.78
64904;BMP280;51401;48.882;12.598;2023-07-31T13:19:28;97142.19;;;27.00
64904;BMP280;51401;48.882;12.598;2023-07-31T13:21:54;97142.38;;;27.49
64904;BMP280;51401;48.882;12.598;2023-07-31T13:24:19;97189.34;;;28.37
64904;BMP280;51401;48.882;12.598;2023-07-31T13:26:44;97162.50;;;29.17
64904;BMP280;51401;48.882;12.598;2023-07-31T13:29:10;97193.00;;;27.49
64904;BMP280;51401;48.882;12.598;2023-07-31T13:31:35;97135.06;;;26.26
64904;BMP280;51401;48.882;12.598;2023-07-31T13:34:01;97156.91;;;27.24
64904;BMP280;51401;48.882;12.598;2023-07-31T13:36:27;97163.75;;;27.98
64904;BMP280;51401;48.882;12.598;2023-07-31T13:38:53;97184.66;;;28.43
64904;BMP280;51401;48.882;12.598;2023-07-31T13:41:18;97171.16;;;28.66
64904;BMP280;51401;48.882;12.598;2023-07-31T13:43:44;97173.72;;;27.97
64904;BMP280;51401;48.882;12.598;2023-07-31T13:46:09;97127.19;;;26.97
64904;BMP280;51401;48.882;12.598;2023-07-31T13:48:36;97110.75;;;27.16
64904;BMP280;51401;48.882;12.598;2023-07-31T13:51:01;97104.84;;;27.65
64904;BMP280;51401;48.882;12.598;2023-07-31T13:53:27;97168.13;;;28.75
64904;BMP280;51401;48.882;12.598;2023-07-31T13:55:52;97164.66;;;27.69
64904;BMP280;51401;48.882;12.598;2023-07-31T13:58:18;97100.75;;;26.57
64904;BMP280;51401;48.882;12.598;2023-07-31T14:00:43;97107.41;;;26.40
64904;BMP280;51401;48.882;12.598;2023-07-31T14:03:08;97112.91;;;26.76